Time;durP1;ratioP1;P1;durP2;ratioP2;P2;SDS_P1;SDS_P2;PMS_P1;PMS_P2;Temp;Humidity;BMP_temperature;BMP_pressure;BME280_temperature;BME280_humidity;BME280_pressure;Samples;Min_cycle;Max_cycle;Signal;HPM_P1;HPM_P2
2022/06/08 00:00:37;;;;;;;;;;;;;;;17.45;57.43;100236.66;5016924;27;97958;-70
2022/06/08 00:03:08;;;;;;;;;;;;;;;17.42;57.38;100235.38;5024425;27;116325;-63
2022/06/08 00:05:34;;;;;;;;;;;;;;;17.39;57.49;100233.25;5026502;27;121881;-69
2022/06/08 00:08:00;;;;;;;;;;;;;;;17.37;57.45;100237.41;5017251;27;128058;-70
2022/06/08 00:10:26;;;;;;;;;;;;;;;17.32;57.45;100227.47;5019705;27;114212;-63
2022/06/08 00:12:52;;;;;;;;;;;;;;;17.29;57.38;100230.88;5022435;27;116270;-63
2022/06/08 00:15:18;;;;;;;;;;;;;;;17.26;57.57;100231.50;5019008;28;98672;-63
2022/06/08 00:17:44;;;;;;;;;;;;;;;17.24;57.52;100224.75;5028089;27;128224;-69
2022/06/08 00:20:10;;;;;;;;;;;;;;;17.21;57.55;100226.16;5040202;27;99575;-63
2022/06/08 00:22:36;;;;;;;;;;;;;;;17.17;57.43;100236.94;5039799;27;118247;-69
2022/06/08 00:25:03;;;;;;;;;;;;;;;17.13;57.49;100227.78;5039684;27;121549;-70
2022/06/08 00:27:29;;;;;;;;;;;;;;;17.09;57.59;100231.44;5040758;27;117895;-69
2022/06/08 00:29:55;;;;;;;;;;;;;;;17.04;57.57;100226.94;5039716;27;127068;-69
2022/06/08 00:32:21;;;;;;;;;;;;;;;17.00;57.58;100227.91;5041448;27;97358;-63
2022/06/08 00:34:47;;;;;;;;;;;;;;;16.96;57.84;100222.28;5033379;27;127736;-63
2022/06/08 00:37:13;;;;;;;;;;;;;;;16.93;57.67;100220.97;5021356;28;126762;-63
2022/06/08 00:39:39;;;;;;;;;;;;;;;16.91;57.82;100225.94;5038528;27;125342;-69
2022/06/08 00:42:07;;;;;;;;;;;;;;;16.90;57.88;100223.56;5041613;27;97433;-62
2022/06/08 00:44:53;;;;;;;;;;;;;;;16.88;57.98;100228.50;5021088;27;121986;-69
2022/06/08 00:47:30;;;;;;;;;;;;;;;16.86;57.88;100239.72;5034111;27;121465;-69
2022/06/08 00:50:11;;;;;;;;;;;;;;;16.84;57.79;100232.97;5038647;27;98222;-63
2022/06/08 00:52:37;;;;;;;;;;;;;;;16.81;57.99;100226.22;5019436;27;97458;-68
2022/06/08 00:55:06;;;;;;;;;;;;;;;16.79;58.06;100219.50;5021197;27;116909;-68
2022/06/08 00:57:36;;;;;;;;;;;;;;;16.73;57.92;100218.81;5032771;27;104196;-69
2022/06/08 01:00:34;;;;;;;;;;;;;;;16.66;58.14;100219.28;5001273;27;124490;-69
2022/06/08 01:03:00;;;;;;;;;;;;;;;16.60;57.98;100231.41;4999488;27;97642;-63
2022/06/08 01:05:28;;;;;;;;;;;;;;;16.53;58.20;100225.59;5018159;27;126958;-69
2022/06/08 01:07:58;;;;;;;;;;;;;;;16.46;58.25;100227.94;5020511;28;98859;-63
2022/06/08 01:10:27;;;;;;;;;;;;;;;16.41;58.23;100226.16;5002659;28;97802;-63
2022/06/08 01:12:53;;;;;;;;;;;;;;;16.39;58.37;100230.34;5018537;27;110038;-69
2022/06/08 01:15:23;;;;;;;;;;;;;;;16.36;58.33;100229.03;5019984;27;98961;-62
2022/06/08 01:17:49;;;;;;;;;;;;;;;16.34;58.53;100222.28;5029534;27;122475;-63
2022/06/08 01:20:15;;;;;;;;;;;;;;;16.30;58.33;100221.31;5018989;27;124918;-63
2022/06/08 01:22:41;;;;;;;;;;;;;;;16.25;58.29;100211.38;5039766;27;116291;-69
2022/06/08 01:25:08;;;;;;;;;;;;;;;16.22;58.39;100208.47;5034347;27;126881;-69
2022/06/08 01:27:39;;;;;;;;;;;;;;;16.18;58.36;100211.00;5033842;27;98598;-69
2022/06/08 01:30:21;;;;;;;;;;;;;;;16.16;58.44;100215.97;5018372;28;98043;-69
2022/06/08 01:33:05;;;;;;;;;;;;;;;16.11;58.40;100222.34;5020626;28;97820;-62
2022/06/08 01:35:37;;;;;;;;;;;;;;;16.09;58.55;100216.38;5017423;27;103689;-62
2022/06/08 01:38:21;;;;;;;;;;;;;;;16.10;58.51;100217.19;5030034;27;98029;-62
2022/06/08 01:41:18;;;;;;;;;;;;;;;16.09;58.64;100215.59;5037110;27;117127;-69
2022/06/08 01:44:03;;;;;;;;;;;;;;;16.07;58.44;100209.66;5038615;27;97420;-63
2022/06/08 01:46:33;;;;;;;;;;;;;;;16.06;58.42;100206.13;5039722;27;98679;-63
2022/06/08 01:49:06;;;;;;;;;;;;;;;16.04;58.56;100196.69;5022806;27;98423;-62
2022/06/08 01:51:39;;;;;;;;;;;;;;;16.00;58.79;100195.72;5017747;28;97520;-69
2022/06/08 01:54:28;;;;;;;;;;;;;;;15.94;58.80;100197.72;5038423;27;97401;-62
2022/06/08 01:57:38;;;;;;;;;;;;;;;15.87;58.63;100194.63;5036711;27;98555;-69
2022/06/08 02:00:13;;;;;;;;;;;;;;;15.81;58.84;100190.44;4996100;27;98200;-69
2022/06/08 02:02:42;;;;;;;;;;;;;;;15.78;58.97;100193.78;5014645;27;98070;-63
2022/06/08 02:05:21;;;;;;;;;;;;;;;15.73;59.06;100191.19;5016788;27;97661;-62
2022/06/08 02:07:48;;;;;;;;;;;;;;;15.70;58.59;100190.69;5007925;27;98592;-69
2022/06/08 02:10:22;;;;;;;;;;;;;;;15.70;58.83;100187.16;5039480;27;124359;-63
2022/06/08 02:12:57;;;;;;;;;;;;;;;15.69;58.81;100189.09;5020082;27;126231;-62
2022/06/08 02:15:31;;;;;;;;;;;;;;;15.66;58.87;100191.63;5037963;27;97767;-63
2022/06/08 02:17:58;;;;;;;;;;;;;;;15.64;59.18;100196.50;5014384;28;97683;-69
2022/06/08 02:20:59;;;;;;;;;;;;;;;15.60;58.75;100187.38;5000143;28;126835;-63
2022/06/08 02:23:46;;;;;;;;;;;;;;;15.56;58.98;100192.63;4993106;28;97623;-63
2022/06/08 02:26:20;;;;;;;;;;;;;;;15.55;58.97;100196.44;4998662;28;97359;-69
2022/06/08 02:28:49;;;;;;;;;;;;;;;15.55;59.14;100196.44;5001129;28;98916;-63
2022/06/08 02:31:31;;;;;;;;;;;;;;;15.55;58.99;100199.16;5017069;27;98449;-69
2022/06/08 02:34:29;;;;;;;;;;;;;;;15.54;59.23;100202.19;5001341;27;98095;-62
2022/06/08 02:37:15;;;;;;;;;;;;;;;15.53;59.29;100206.03;5018726;27;97626;-69
2022/06/08 02:39:43;;;;;;;;;;;;;;;15.51;59.28;100192.72;5012910;27;115857;-63
2022/06/08 02:42:13;;;;;;;;;;;;;;;15.50;59.30;100191.13;5017460;27;97559;-63
2022/06/08 02:44:39;;;;;;;;;;;;;;;15.45;59.03;100186.63;5017109;28;97623;-63
2022/06/08 02:47:16;;;;;;;;;;;;;;;15.43;59.20;100188.03;5001260;27;97490;-69
2022/06/08 02:49:42;;;;;;;;;;;;;;;15.42;59.44;100194.56;5014184;28;97596;-68
2022/06/08 02:52:17;;;;;;;;;;;;;;;15.41;59.21;100192.97;5017234;27;114595;-62
2022/06/08 02:54:43;;;;;;;;;;;;;;;15.42;59.08;100197.28;5036885;27;97698;-69
2022/06/08 02:57:37;;;;;;;;;;;;;;;15.45;59.09;100199.41;5036002;27;115172;-69
2022/06/08 03:00:06;;;;;;;;;;;;;;;15.55;59.13;100201.06;4998651;27;98841;-69
2022/06/08 03:02:58;;;;;;;;;;;;;;;15.65;58.95;100193.53;5003433;27;98515;-62
2022/06/08 03:05:27;;;;;;;;;;;;;;;15.74;58.57;100190.88;4998833;28;97747;-62
2022/06/08 03:08:02;;;;;;;;;;;;;;;15.79;58.59;100192.66;5007615;27;97071;-62
2022/06/08 03:10:30;;;;;;;;;;;;;;;15.81;58.39;100196.69;5020586;27;97669;-63
2022/06/08 03:13:14;;;;;;;;;;;;;;;15.83;58.55;100196.38;5020949;27;98287;-62
2022/06/08 03:15:41;;;;;;;;;;;;;;;15.81;58.57;100202.13;5021069;27;97581;-70
2022/06/08 03:18:07;;;;;;;;;;;;;;;15.81;58.42;100196.69;5013356;27;97504;-68
2022/06/08 03:20:33;;;;;;;;;;;;;;;15.82;58.38;100192.84;5037897;27;98793;-68
2022/06/08 03:22:59;;;;;;;;;;;;;;;15.82;58.46;100192.06;5019858;27;98388;-62
2022/06/08 03:25:25;;;;;;;;;;;;;;;15.79;58.37;100184.50;5017732;28;126316;-69
2022/06/08 03:27:51;;;;;;;;;;;;;;;15.78;58.24;100191.88;5020765;27;116349;-62
2022/06/08 03:30:17;;;;;;;;;;;;;;;15.76;58.33;100196.81;5037894;27;98274;-62
2022/06/08 03:32:43;;;;;;;;;;;;;;;15.78;58.41;100204.66;5037643;27;98916;-62
2022/06/08 03:35:10;;;;;;;;;;;;;;;15.79;58.28;100190.75;5037126;27;116216;-68
2022/06/08 03:37:36;;;;;;;;;;;;;;;15.81;58.36;100191.25;5036178;27;116392;-68
2022/06/08 03:40:02;;;;;;;;;;;;;;;15.84;58.15;100198.00;5016654;28;129236;-69
2022/06/08 03:42:28;;;;;;;;;;;;;;;15.86;58.50;100202.00;5016717;27;124185;-63
2022/06/08 03:44:54;;;;;;;;;;;;;;;15.89;58.16;100203.31;5018842;28;127494;-69
2022/06/08 03:47:22;;;;;;;;;;;;;;;15.89;58.51;100204.09;5019409;27;117015;-69
2022/06/08 03:49:49;;;;;;;;;;;;;;;15.91;58.37;100203.78;5022001;27;97837;-62
2022/06/08 03:52:20;;;;;;;;;;;;;;;15.92;58.22;100213.56;5027404;27;118220;-62
2022/06/08 03:54:49;;;;;;;;;;;;;;;15.94;58.43;100214.03;5039850;27;114141;-69
2022/06/08 03:57:15;;;;;;;;;;;;;;;15.95;58.10;100211.03;5029680;27;99912;-63
2022/06/08 03:59:41;;;;;;;;;;;;;;;15.95;58.50;100210.19;5022838;27;97958;-62
2022/06/08 04:02:09;;;;;;;;;;;;;;;15.94;58.39;100203.16;5020939;27;113947;-69
2022/06/08 04:04:36;;;;;;;;;;;;;;;15.92;58.07;100203.50;5021396;27;98225;-63
2022/06/08 04:07:02;;;;;;;;;;;;;;;15.94;58.29;100203.16;5003412;27;115969;-62
2022/06/08 04:09:28;;;;;;;;;;;;;;;15.97;58.06;100199.03;5031922;27;98808;-68
2022/06/08 04:11:54;;;;;;;;;;;;;;;15.99;58.22;100203.03;5040277;27;126323;-62
2022/06/08 04:14:21;;;;;;;;;;;;;;;16.03;58.14;100205.94;5041158;27;126538;-62
2022/06/08 04:16:47;;;;;;;;;;;;;;;16.07;58.14;100206.91;5041020;27;97097;-69
2022/06/08 04:19:13;;;;;;;;;;;;;;;16.11;57.95;100199.75;5022325;27;98590;-69
2022/06/08 04:21:40;;;;;;;;;;;;;;;16.14;58.39;100199.13;5015703;27;97537;-62
2022/06/08 04:24:06;;;;;;;;;;;;;;;16.19;58.34;100199.00;5013918;27;124510;-69
2022/06/08 04:26:32;;;;;;;;;;;;;;;16.24;58.28;100195.38;5013827;28;97724;-69
2022/06/08 04:28:58;;;;;;;;;;;;;;;16.27;58.15;100198.28;5019427;27;124856;-68
2022/06/08 04:31:24;;;;;;;;;;;;;;;16.28;58.27;100202.59;5014340;28;125399;-63
2022/06/08 04:33:53;;;;;;;;;;;;;;;16.33;58.10;100204.38;5019584;27;119765;-69
2022/06/08 04:36:19;;;;;;;;;;;;;;;16.39;58.34;100206.66;5015553;27;98052;-69
2022/06/08 04:38:45;;;;;;;;;;;;;;;16.48;58.03;100205.91;5021029;27;127475;-62
2022/06/08 04:41:11;;;;;;;;;;;;;;;16.55;58.10;100208.97;5014683;27;97699;-69
2022/06/08 04:43:37;;;;;;;;;;;;;;;16.58;58.23;100211.03;5014537;27;127042;-69
2022/06/08 04:46:03;;;;;;;;;;;;;;;16.61;58.04;100207.69;5014853;28;97804;-69
2022/06/08 04:48:29;;;;;;;;;;;;;;;16.67;58.00;100206.47;5013072;27;110421;-62
2022/06/08 04:50:55;;;;;;;;;;;;;;;16.75;57.88;100210.38;5014852;27;117094;-69
2022/06/08 04:53:21;;;;;;;;;;;;;;;16.83;57.95;100210.38;5018612;27;127047;-62
2022/06/08 04:55:47;;;;;;;;;;;;;;;16.96;57.82;100205.13;5018441;27;98051;-62
2022/06/08 04:58:13;;;;;;;;;;;;;;;17.05;57.68;100209.47;5022094;27;127671;-69
2022/06/08 05:00:39;;;;;;;;;;;;;;;17.15;57.64;100205.66;5013874;28;127189;-70
2022/06/08 05:03:05;;;;;;;;;;;;;;;17.28;57.46;100209.38;5021696;27;97973;-69
2022/06/08 05:05:32;;;;;;;;;;;;;;;17.42;57.29;100213.56;5019957;27;107175;-62
2022/06/08 05:07:58;;;;;;;;;;;;;;;17.61;57.12;100212.47;5030033;27;98715;-70
2022/06/08 05:10:26;;;;;;;;;;;;;;;17.77;56.73;100216.34;5039730;27;115171;-68
2022/06/08 05:12:52;;;;;;;;;;;;;;;17.93;56.81;100213.13;5027953;27;123968;-62
2022/06/08 05:15:21;;;;;;;;;;;;;;;18.08;56.61;100207.97;5020488;28;116430;-69
2022/06/08 05:17:47;;;;;;;;;;;;;;;18.24;56.45;100204.72;5028531;27;98640;-62
2022/06/08 05:20:13;;;;;;;;;;;;;;;18.28;56.22;100198.31;5040091;27;127477;-70
2022/06/08 05:22:40;;;;;;;;;;;;;;;18.37;55.93;100195.53;5037125;27;126949;-68
2022/06/08 05:25:06;;;;;;;;;;;;;;;18.50;55.73;100194.53;5037487;27;116833;-62
2022/06/08 05:27:32;;;;;;;;;;;;;;;18.69;55.71;100202.31;5039285;27;114069;-70
2022/06/08 05:29:58;;;;;;;;;;;;;;;18.97;55.29;100197.22;5020109;27;127885;-69
2022/06/08 05:32:24;;;;;;;;;;;;;;;19.25;54.93;100200.25;5019783;27;125237;-69
2022/06/08 05:34:50;;;;;;;;;;;;;;;19.54;54.24;100196.69;5019713;27;114976;-62
2022/06/08 05:37:16;;;;;;;;;;;;;;;19.82;53.95;100194.22;5018597;27;126744;-68
2022/06/08 05:39:42;;;;;;;;;;;;;;;20.13;53.41;100186.72;5018370;27;126564;-69
2022/06/08 05:42:08;;;;;;;;;;;;;;;20.46;53.15;100181.97;5024559;27;97994;-69
2022/06/08 05:44:35;;;;;;;;;;;;;;;20.85;52.62;100174.25;5039274;27;112226;-69
2022/06/08 05:47:02;;;;;;;;;;;;;;;21.79;51.12;100171.19;5039518;27;97927;-62
2022/06/08 05:49:28;;;;;;;;;;;;;;;24.50;46.16;100172.97;5035632;27;97604;-63
2022/06/08 05:51:54;;;;;;;;;;;;;;;25.08;46.20;100177.41;5019840;27;104225;-62
2022/06/08 05:54:20;;;;;;;;;;;;;;;27.20;43.55;100186.75;5019245;28;116974;-62
2022/06/08 05:56:46;;;;;;;;;;;;;;;29.50;40.36;100187.38;5018100;27;127459;-62
2022/06/08 05:59:12;;;;;;;;;;;;;;;30.99;38.46;100195.16;5019913;27;125651;-65
2022/06/08 06:01:38;;;;;;;;;;;;;;;32.06;37.13;100191.13;5017154;27;126807;-70
2022/06/08 06:04:07;;;;;;;;;;;;;;;31.77;37.27;100197.06;5040797;27;97350;-62
2022/06/08 06:06:33;;;;;;;;;;;;;;;31.59;37.91;100190.94;5023315;27;97731;-63
2022/06/08 06:08:59;;;;;;;;;;;;;;;33.32;35.46;100198.97;5019910;27;97765;-69
2022/06/08 06:11:25;;;;;;;;;;;;;;;35.27;32.78;100200.41;5017673;27;117106;-69
2022/06/08 06:13:51;;;;;;;;;;;;;;;35.92;31.49;100193.69;5038849;27;97606;-63
2022/06/08 06:16:17;;;;;;;;;;;;;;;35.06;32.40;100187.78;5020148;27;117745;-69
2022/06/08 06:18:42;;;;;;;;;;;;;;;36.16;29.73;100187.78;5018116;28;97978;-63
2022/06/08 06:21:14;;;;;;;;;;;;;;;36.57;29.25;100182.03;5017684;28;127045;-69
2022/06/08 06:23:40;;;;;;;;;;;;;;;36.37;29.32;100179.47;5018844;27;97196;-69
2022/06/08 06:26:06;;;;;;;;;;;;;;;37.52;27.51;100175.50;5018654;28;102165;-69
2022/06/08 06:28:32;;;;;;;;;;;;;;;36.95;28.89;100172.75;5018612;27;123244;-63
2022/06/08 06:30:58;;;;;;;;;;;;;;;37.48;27.76;100164.38;5000062;28;99018;-69
2022/06/08 06:33:24;;;;;;;;;;;;;;;38.03;27.05;100163.88;5001573;28;116418;-63
2022/06/08 06:35:50;;;;;;;;;;;;;;;38.96;25.54;100162.81;5018631;27;121159;-63
2022/06/08 06:38:15;;;;;;;;;;;;;;;38.05;26.82;100155.78;5019018;27;98962;-63
2022/06/08 06:40:41;;;;;;;;;;;;;;;37.55;26.98;100150.06;5017361;27;123586;-70
2022/06/08 06:43:10;;;;;;;;;;;;;;;37.21;27.40;100139.69;5031207;27;107631;-69
2022/06/08 06:45:36;;;;;;;;;;;;;;;36.86;27.83;100142.56;5037018;27;97405;-63
2022/06/08 06:48:02;;;;;;;;;;;;;;;36.53;27.42;100139.28;5030309;27;122470;-69
2022/06/08 06:50:27;;;;;;;;;;;;;;;36.11;28.01;100136.66;5037511;27;99041;-69
2022/06/08 06:52:53;;;;;;;;;;;;;;;35.74;27.70;100134.63;5018842;27;111149;-69
2022/06/08 06:55:22;;;;;;;;;;;;;;;35.41;28.05;100129.97;5018339;27;98534;-63
2022/06/08 06:57:48;;;;;;;;;;;;;;;35.18;28.22;100127.47;5017985;27;97920;-69
2022/06/08 07:00:16;;;;;;;;;;;;;;;35.06;28.51;100131.03;5016962;28;128564;-70
2022/06/08 07:02:42;;;;;;;;;;;;;;;35.02;28.27;100131.13;5020185;27;97373;-63
2022/06/08 07:05:17;;;;;;;;;;;;;;;35.02;28.06;100122.72;5018275;27;121271;-63
2022/06/08 07:07:43;;;;;;;;;;;;;;;35.08;28.32;100120.16;5023498;27;97491;-63
2022/06/08 07:10:09;;;;;;;;;;;;;;;35.12;28.04;100113.22;5035997;27;98285;-69
2022/06/08 07:12:34;;;;;;;;;;;;;;;35.23;28.06;100112.13;5030336;27;117542;-69
2022/06/08 07:15:00;;;;;;;;;;;;;;;35.37;28.02;100109.69;5017265;27;127761;-70
2022/06/08 07:17:26;;;;;;;;;;;;;;;35.50;27.91;100111.75;5017320;28;125582;-63
2022/06/08 07:19:52;;;;;;;;;;;;;;;35.58;27.07;100104.69;5017227;28;127096;-69
2022/06/08 07:22:18;;;;;;;;;;;;;;;35.54;27.21;100104.81;5017694;27;116974;-68
2022/06/08 07:24:44;;;;;;;;;;;;;;;35.53;28.42;100099.63;5018139;28;97389;-65
2022/06/08 07:27:10;;;;;;;;;;;;;;;35.51;29.50;100105.69;5021795;27;97870;-65
2022/06/08 07:29:36;;;;;;;;;;;;;;;35.55;29.97;100095.16;5033686;27;126487;-68
2022/06/08 07:32:02;;;;;;;;;;;;;;;35.63;29.96;100104.91;5037390;27;101482;-68
2022/06/08 07:34:28;;;;;;;;;;;;;;;35.76;29.53;100095.72;5037833;27;123072;-68
2022/06/08 07:36:54;;;;;;;;;;;;;;;35.87;29.88;100102.56;5037365;27;123525;-68
2022/06/08 07:39:20;;;;;;;;;;;;;;;35.98;28.40;100095.84;5037652;27;122217;-64
2022/06/08 07:41:47;;;;;;;;;;;;;;;36.10;28.10;100100.66;5037628;27;97484;-68
2022/06/08 07:44:14;;;;;;;;;;;;;;;36.24;28.51;100103.00;5030097;27;99521;-68
2022/06/08 07:46:40;;;;;;;;;;;;;;;36.45;28.51;100098.66;5037827;27;98571;-64
2022/06/08 07:51:54;;;;;;;;;;;;;;;36.95;27.30;100094.13;5003688;27;97917;-64
2022/06/08 07:54:24;;;;;;;;;;;;;;;37.27;27.50;100101.34;5038393;27;97758;-64
2022/06/08 07:56:51;;;;;;;;;;;;;;;37.68;26.56;100096.56;5035851;27;97395;-69
2022/06/08 07:59:17;;;;;;;;;;;;;;;38.02;27.05;100095.59;5029873;27;97637;-69
2022/06/08 08:01:43;;;;;;;;;;;;;;;38.46;26.12;100097.41;5018084;27;97410;-69
2022/06/08 08:04:09;;;;;;;;;;;;;;;38.91;25.32;100090.22;5035729;27;99139;-65
2022/06/08 08:06:35;;;;;;;;;;;;;;;39.32;24.30;100085.94;5022742;27;128378;-64
2022/06/08 08:09:01;;;;;;;;;;;;;;;39.69;24.14;100097.06;5016821;27;127689;-64
2022/06/08 08:11:27;;;;;;;;;;;;;;;40.07;24.03;100096.41;5017022;28;104784;-68
2022/06/08 08:13:53;;;;;;;;;;;;;;;40.39;23.00;100088.38;5033747;27;98828;-65
2022/06/08 08:16:19;;;;;;;;;;;;;;;40.83;23.17;100091.28;5036568;27;127761;-65
2022/06/08 08:18:45;;;;;;;;;;;;;;;41.30;22.66;100094.44;5036825;27;126814;-70
2022/06/08 08:21:11;;;;;;;;;;;;;;;41.80;21.65;100081.09;5037251;27;117007;-70
2022/06/08 08:23:38;;;;;;;;;;;;;;;42.23;21.63;100086.34;5035914;27;113226;-65
2022/06/08 08:26:04;;;;;;;;;;;;;;;42.50;21.16;100083.09;5037451;27;98050;-65
2022/06/08 08:28:29;;;;;;;;;;;;;;;42.93;21.12;100080.47;5034124;27;126841;-70
2022/06/08 08:30:55;;;;;;;;;;;;;;;43.41;20.30;100077.00;5039336;27;116926;-70
2022/06/08 08:33:21;;;;;;;;;;;;;;;43.60;19.47;100083.09;5028432;27;126978;-65
2022/06/08 08:35:47;;;;;;;;;;;;;;;43.91;19.92;100079.44;5021339;27;126347;-70
2022/06/08 08:38:13;;;;;;;;;;;;;;;44.22;19.29;100077.78;5020105;27;125754;-70
2022/06/08 08:40:56;;;;;;;;;;;;;;;44.22;18.40;100074.94;5019047;28;97645;-66
2022/06/08 08:43:24;;;;;;;;;;;;;;;44.18;18.40;100075.19;5003947;28;98943;-71
2022/06/08 08:46:00;;;;;;;;;;;;;;;44.31;18.18;100077.56;5018810;28;98983;-66
2022/06/08 08:48:39;;;;;;;;;;;;;;;44.81;18.63;100069.19;5017888;27;125476;-69
2022/06/08 08:51:13;;;;;;;;;;;;;;;45.08;17.98;100066.13;5003866;28;97650;-71
2022/06/08 08:54:13;;;;;;;;;;;;;;;45.26;17.90;100062.75;5031644;27;110262;-71
2022/06/08 08:56:42;;;;;;;;;;;;;;;45.69;17.59;100060.38;5000579;28;97162;-71
2022/06/08 08:59:17;;;;;;;;;;;;;;;45.98;17.20;100052.53;5000489;28;97498;-66
2022/06/08 09:01:45;;;;;;;;;;;;;;;46.12;17.29;100053.53;5007858;27;105227;-72
2022/06/08 09:04:33;;;;;;;;;;;;;;;46.40;17.65;100048.47;5019514;27;98840;-72
2022/06/08 09:07:16;;;;;;;;;;;;;;;46.73;17.73;100035.34;5029199;27;98734;-72
2022/06/08 09:09:42;;;;;;;;;;;;;;;47.19;17.27;100042.22;5038787;27;100987;-66
2022/06/08 09:12:13;;;;;;;;;;;;;;;47.49;17.19;100032.91;5036458;27;114876;-66
2022/06/08 09:14:46;;;;;;;;;;;;;;;47.71;16.79;100035.50;5020132;27;98076;-66
2022/06/08 09:17:32;;;;;;;;;;;;;;;47.83;16.52;100033.28;5020955;27;98719;-72
2022/06/08 09:19:58;;;;;;;;;;;;;;;47.87;16.29;100033.75;5020532;27;97129;-66
2022/06/08 09:22:26;;;;;;;;;;;;;;;47.41;16.58;100024.94;5020477;27;116987;-72
2022/06/08 09:25:03;;;;;;;;;;;;;;;46.87;16.78;100016.31;5020827;27;98584;-72
2022/06/08 09:27:30;;;;;;;;;;;;;;;46.25;16.83;100011.81;5035969;27;98550;-65
2022/06/08 09:30:04;;;;;;;;;;;;;;;45.53;17.61;100007.94;5038048;27;98192;-65
2022/06/08 09:32:49;;;;;;;;;;;;;;;44.98;17.94;100003.06;5038756;27;96896;-66
2022/06/08 09:35:23;;;;;;;;;;;;;;;44.87;18.17;100003.84;5038617;27;97872;-66
2022/06/08 09:37:52;;;;;;;;;;;;;;;45.24;17.76;100002.81;5037808;27;97606;-66
2022/06/08 09:40:36;;;;;;;;;;;;;;;45.47;17.01;100000.69;5040034;27;98046;-72
2022/06/08 09:43:26;;;;;;;;;;;;;;;45.88;16.47;99985.84;5036793;27;98983;-66
2022/06/08 09:45:59;;;;;;;;;;;;;;;46.39;15.94;99980.66;5035505;27;97468;-72
2022/06/08 09:51:53;;;;;;;;;;;;;;;47.51;16.27;99988.25;5004551;28;97244;-65
2022/06/08 09:54:42;;;;;;;;;;;;;;;48.31;15.96;99983.09;5039111;27;97614;-65
2022/06/08 09:57:30;;;;;;;;;;;;;;;48.77;15.27;99984.72;5024326;27;97784;-66
2022/06/08 10:00:24;;;;;;;;;;;;;;;49.20;15.31;99978.00;5026670;27;98030;-65
2022/06/08 10:02:53;;;;;;;;;;;;;;;49.79;14.96;99967.19;5028122;27;114961;-71
2022/06/08 10:05:31;;;;;;;;;;;;;;;49.96;14.44;99960.38;5017009;27;97005;-71
2022/06/08 10:08:29;;;;;;;;;;;;;;;49.99;14.69;99959.25;4998968;28;98923;-65
2022/06/08 10:11:36;;;;;;;;;;;;;;;50.23;14.48;99956.13;4996696;28;97437;-65
2022/06/08 10:14:33;;;;;;;;;;;;;;;50.48;13.90;99947.19;5036090;27;97721;-65
2022/06/08 10:17:27;;;;;;;;;;;;;;;50.28;14.00;99940.88;5018413;27;111270;-65
2022/06/08 10:19:59;;;;;;;;;;;;;;;50.32;14.17;99929.84;5016547;27;98929;-71
2022/06/08 10:22:30;;;;;;;;;;;;;;;50.48;13.71;99924.25;5024629;27;97343;-71
2022/06/08 10:25:04;;;;;;;;;;;;;;;50.72;13.84;99923.91;5036881;27;119408;-65
2022/06/08 10:27:34;;;;;;;;;;;;;;;50.85;13.71;99908.69;5021902;27;97612;-65
2022/06/08 10:30:09;;;;;;;;;;;;;;;50.78;14.31;99909.41;5016586;28;127884;-65
2022/06/08 10:32:49;;;;;;;;;;;;;;;51.10;13.84;99906.22;5035772;27;127673;-70
2022/06/08 10:35:21;;;;;;;;;;;;;;;49.01;14.60;99900.91;5025669;27;97546;-64
2022/06/08 10:37:47;;;;;;;;;;;;;;;48.24;14.72;99893.13;5019791;27;116257;-65
2022/06/08 10:40:23;;;;;;;;;;;;;;;48.37;14.89;99884.56;5015927;27;127323;-70
2022/06/08 10:42:49;;;;;;;;;;;;;;;47.05;15.52;99898.81;5017186;28;98095;-65
2022/06/08 10:45:22;;;;;;;;;;;;;;;48.10;14.64;99883.72;5018717;27;98069;-65
2022/06/08 10:48:03;;;;;;;;;;;;;;;48.72;14.71;99890.50;5028218;27;96855;-65
2022/06/08 10:50:32;;;;;;;;;;;;;;;49.41;14.19;99897.28;5036699;27;98626;-71
2022/06/08 10:55:44;;;;;;;;;;;;;;;50.34;13.83;99889.94;5016898;27;97319;-65
2022/06/08 10:58:12;;;;;;;;;;;;;;;49.22;14.43;99877.38;4998731;28;97158;-71
2022/06/08 11:01:00;;;;;;;;;;;;;;;48.31;14.61;99869.63;4996753;28;97545;-71
2022/06/08 11:03:46;;;;;;;;;;;;;;;46.80;15.69;99869.50;4995469;28;97875;-71
2022/06/08 11:06:50;;;;;;;;;;;;;;;45.52;16.37;99860.59;5011715;27;98230;-71
2022/06/08 11:09:32;;;;;;;;;;;;;;;47.42;15.91;99871.69;5018945;28;97657;-71
2022/06/08 11:12:12;;;;;;;;;;;;;;;44.81;17.19;99872.41;5018480;27;98063;-65
2022/06/08 11:14:47;;;;;;;;;;;;;;;43.11;18.01;99864.75;5018392;27;98587;-64
2022/06/08 11:17:27;;;;;;;;;;;;;;;42.16;18.52;99863.97;5025482;27;97956;-70
2022/06/08 11:20:11;;;;;;;;;;;;;;;40.61;19.47;99857.34;5016390;27;97649;-70
2022/06/08 11:22:40;;;;;;;;;;;;;;;39.20;20.06;99858.69;5024463;27;97477;-64
2022/06/08 11:25:15;;;;;;;;;;;;;;;38.18;20.99;99857.50;5019356;27;126254;-64
2022/06/08 11:27:41;;;;;;;;;;;;;;;37.31;21.78;99860.41;5004776;28;98202;-64
2022/06/08 11:30:26;;;;;;;;;;;;;;;36.62;22.52;99857.97;5015851;28;97596;-65
2022/06/08 11:32:52;;;;;;;;;;;;;;;35.85;22.97;99852.78;5019092;27;97921;-70
2022/06/08 11:35:31;;;;;;;;;;;;;;;35.20;23.56;99858.22;5018109;27;102053;-64
2022/06/08 11:38:18;;;;;;;;;;;;;;;34.72;23.90;99868.53;5035365;27;98275;-65
2022/06/08 11:40:45;;;;;;;;;;;;;;;34.43;24.55;99861.75;5038263;27;97726;-66
2022/06/08 11:43:13;;;;;;;;;;;;;;;34.26;24.64;99862.25;5025715;27;98736;-64
2022/06/08 11:45:47;;;;;;;;;;;;;;;34.13;25.02;99857.44;5017888;27;98808;-65
2022/06/08 11:48:24;;;;;;;;;;;;;;;34.23;25.26;99866.72;5037051;27;98036;-71
2022/06/08 11:50:58;;;;;;;;;;;;;;;35.14;24.10;99869.22;5034186;27;97413;-71
2022/06/08 11:53:40;;;;;;;;;;;;;;;36.22;23.57;99861.47;5032345;27;98892;-65
2022/06/08 11:56:35;;;;;;;;;;;;;;;36.44;23.73;99861.47;5037465;27;99139;-71
2022/06/08 11:59:01;;;;;;;;;;;;;;;38.00;22.70;99861.09;5015553;27;122884;-71
2022/06/08 12:01:31;;;;;;;;;;;;;;;37.33;23.67;99866.34;5000443;28;97618;-65
2022/06/08 12:04:08;;;;;;;;;;;;;;;36.84;24.14;99852.31;5016425;27;123487;-65
2022/06/08 12:06:36;;;;;;;;;;;;;;;37.09;23.94;99843.66;5012265;27;98256;-65
2022/06/08 12:09:06;;;;;;;;;;;;;;;38.53;22.98;99855.88;5023812;27;97551;-71
2022/06/08 12:11:33;;;;;;;;;;;;;;;38.82;22.28;99865.00;5039061;27;114177;-71
2022/06/08 12:14:13;;;;;;;;;;;;;;;38.91;22.15;99851.69;5040525;27;98382;-65
2022/06/08 12:16:49;;;;;;;;;;;;;;;38.71;22.13;99846.56;5035670;27;125781;-69
2022/06/08 12:19:17;;;;;;;;;;;;;;;37.56;22.75;99847.34;5022536;27;97220;-67
2022/06/08 12:21:46;;;;;;;;;;;;;;;36.97;23.45;99838.94;5020252;28;97509;-71
2022/06/08 12:24:11;;;;;;;;;;;;;;;36.34;23.73;99835.38;5019746;28;98538;-65
2022/06/08 12:26:55;;;;;;;;;;;;;;;38.13;22.68;99841.25;5024981;27;102676;-70
2022/06/08 12:29:27;;;;;;;;;;;;;;;38.73;21.21;99823.56;5000781;28;97420;-64
2022/06/08 12:32:06;;;;;;;;;;;;;;;38.17;22.21;99813.75;5002262;27;97563;-65
2022/06/08 12:34:50;;;;;;;;;;;;;;;39.03;21.69;99827.34;5018946;27;97570;-70
2022/06/08 12:37:28;;;;;;;;;;;;;;;39.37;21.55;99822.44;5027001;27;98225;-70
2022/06/08 12:39:58;;;;;;;;;;;;;;;39.10;21.23;99812.91;5040618;27;98045;-71
2022/06/08 12:42:25;;;;;;;;;;;;;;;38.87;21.67;99811.66;5040735;27;105359;-70
2022/06/08 12:44:53;;;;;;;;;;;;;;;38.73;21.80;99807.47;5041052;27;98603;-72
2022/06/08 12:47:19;;;;;;;;;;;;;;;39.26;21.11;99815.34;5024539;27;97598;-64
2022/06/08 12:49:51;;;;;;;;;;;;;;;39.03;21.67;99811.25;5019770;27;97098;-71
2022/06/08 12:52:25;;;;;;;;;;;;;;;38.03;22.55;99810.34;5021137;27;97251;-64
2022/06/08 12:54:51;;;;;;;;;;;;;;;38.43;22.12;99806.50;5020198;27;98666;-70
2022/06/08 12:57:19;;;;;;;;;;;;;;;38.96;21.84;99800.31;5025181;27;98566;-64
2022/06/08 12:59:46;;;;;;;;;;;;;;;39.29;21.16;99805.13;5040853;27;97849;-64
2022/06/08 13:02:35;;;;;;;;;;;;;;;38.65;20.99;99802.66;5040647;27;97357;-64
2022/06/08 13:05:03;;;;;;;;;;;;;;;38.35;21.98;99791.22;5039495;27;97571;-71